Time;durP1;ratioP1;P1;durP2;ratioP2;P2;SDS_P1;SDS_P2;PMS_P1;PMS_P2;Temp;Humidity;BMP_temperature;BMP_pressure;BME280_temperature;BME280_humidity;BME280_pressure;Samples;Min_cycle;Max_cycle;Signal;HPM_P1;HPM_P2
2023/02/19 00:01:47;;;;;;;3.83;0.77;;;27.10;64.30;;;;;;4092662;28;20648;-53
2023/02/19 00:04:16;;;;;;;1.77;0.77;;;27.10;64.20;;;;;;4095116;28;20098;-48
2023/02/19 00:06:38;;;;;;;3.30;1.02;;;27.20;64.30;;;;;;4098429;28;20115;-44
2023/02/19 00:09:02;;;;;;;3.90;1.00;;;27.20;64.30;;;;;;4101523;28;20501;-45
2023/02/19 00:11:27;;;;;;;7.20;1.13;;;27.20;64.30;;;;;;4087625;28;20038;-52
2023/02/19 00:13:52;;;;;;;4.03;1.30;;;27.20;64.30;;;;;;4097573;28;20039;-50
2023/02/19 00:16:20;;;;;;;3.67;1.30;;;27.30;64.40;;;;;;4100797;28;20049;-46
2023/02/19 00:18:43;;;;;;;8.63;1.70;;;27.30;64.70;;;;;;4099490;28;20509;-48
2023/02/19 00:21:05;;;;;;;;;;;27.30;64.70;;;;;;4100116;28;20042;-46
2023/02/19 00:23:28;;;;;;;7.78;2.13;;;27.30;64.50;;;;;;4097190;28;20020;-50
2023/02/19 00:25:50;;;;;;;10.05;1.88;;;27.40;64.60;;;;;;4102608;28;20038;-47
2023/02/19 00:28:13;;;;;;;9.95;1.75;;;27.40;64.40;;;;;;4094810;28;20116;-48
2023/02/19 00:30:35;;;;;;;5.07;1.27;;;27.40;64.20;;;;;;4097579;28;20856;-46
2023/02/19 00:32:57;;;;;;;4.32;1.20;;;27.50;64.00;;;;;;4100834;28;20126;-46
2023/02/19 00:35:20;;;;;;;6.70;1.40;;;27.50;63.80;;;;;;4100534;28;20066;-47
2023/02/19 00:37:42;;;;;;;3.95;1.10;;;27.60;63.60;;;;;;4078758;28;20034;-47
2023/02/19 00:40:05;;;;;;;5.47;1.45;;;27.60;63.40;;;;;;4099997;28;20042;-46
2023/02/19 00:42:28;;;;;;;4.17;1.33;;;27.60;63.30;;;;;;4096842;28;20038;-46
2023/02/19 00:44:50;;;;;;;3.58;1.00;;;27.70;63.20;;;;;;4093173;28;20074;-46
2023/02/19 00:47:12;;;;;;;2.60;1.17;;;27.70;63.10;;;;;;4093786;28;20089;-48
2023/02/19 00:49:35;;;;;;;2.05;0.82;;;27.70;63.00;;;;;;4095547;28;20038;-47
2023/02/19 00:51:57;;;;;;;3.50;1.45;;;27.70;62.90;;;;;;4101731;28;20598;-47
2023/02/19 00:54:21;;;;;;;3.88;1.30;;;27.70;62.80;;;;;;4093798;28;20182;-52
2023/02/19 00:56:54;;;;;;;2.60;0.90;;;27.80;62.70;;;;;;4098863;28;20038;-47
2023/02/19 00:59:17;;;;;;;3.47;0.80;;;27.80;62.70;;;;;;4088841;28;20525;-48
2023/02/19 01:01:39;;;;;;;2.70;0.80;;;27.80;62.60;;;;;;4094352;28;20763;-46
2023/02/19 01:04:02;;;;;;;2.20;0.70;;;27.80;62.50;;;;;;4097290;28;20121;-49
2023/02/19 01:06:24;;;;;;;3.47;1.10;;;27.80;62.50;;;;;;4102884;28;20234;-53
2023/02/19 01:08:48;;;;;;;1.42;0.95;;;27.80;62.40;;;;;;4095565;28;20058;-51
2023/02/19 01:11:11;;;;;;;2.88;0.93;;;27.80;62.30;;;;;;4090173;28;20039;-51
2023/02/19 01:13:34;;;;;;;3.10;0.95;;;27.90;62.30;;;;;;4096204;28;20073;-50
2023/02/19 01:16:17;;;;;;;3.17;0.90;;;27.90;62.20;;;;;;4106368;28;20043;-48
2023/02/19 01:18:40;;;;;;;2.67;0.85;;;27.90;62.10;;;;;;4118358;28;20528;-45
2023/02/19 01:21:17;;;;;;;1.70;0.52;;;27.90;62.00;;;;;;4106067;28;20094;-50
2023/02/19 01:23:40;;;;;;;2.25;0.80;;;28.00;62.00;;;;;;4107157;28;20043;-53
2023/02/19 01:26:11;;;;;;;2.00;0.80;;;28.00;62.60;;;;;;4107954;28;20058;-52
2023/02/19 01:28:35;;;;;;;2.28;0.90;;;28.00;61.90;;;;;;4093025;28;20122;-49
2023/02/19 01:31:01;;;;;;;1.40;0.77;;;28.10;61.90;;;;;;4096909;28;20105;-52
2023/02/19 01:33:24;;;;;;;1.77;0.90;;;28.10;61.70;;;;;;4107320;28;20115;-52
2023/02/19 01:35:46;;;;;;;2.38;0.88;;;28.10;61.70;;;;;;4095149;28;20418;-53
2023/02/19 01:38:08;;;;;;;2.35;0.75;;;28.20;61.70;;;;;;4094367;28;20046;-49
2023/02/19 01:40:31;;;;;;;2.20;0.68;;;28.20;61.50;;;;;;4096285;28;20046;-48
2023/02/19 01:42:53;;;;;;;1.17;0.60;;;28.20;61.50;;;;;;4095114;28;20436;-53
2023/02/19 01:45:21;;;;;;;2.90;1.13;;;28.20;61.50;;;;;;4094348;28;20081;-48
2023/02/19 01:47:45;;;;;;;1.60;0.90;;;28.20;61.50;;;;;;4101520;28;20039;-51
2023/02/19 01:50:08;;;;;;;2.30;0.70;;;28.30;61.60;;;;;;4101679;28;20432;-52
2023/02/19 01:52:35;;;;;;;2.03;0.82;;;28.20;61.50;;;;;;4095999;28;20364;-50
2023/02/19 01:55:00;;;;;;;2.05;0.50;;;28.30;61.50;;;;;;4096773;28;20054;-49
2023/02/19 01:57:27;;;;;;;2.53;1.08;;;28.30;61.50;;;;;;4103254;28;20027;-49
2023/02/19 01:59:54;;;;;;;2.22;0.93;;;28.30;61.40;;;;;;4104995;28;20061;-50
2023/02/19 02:02:16;;;;;;;2.63;0.75;;;28.40;61.40;;;;;;4099046;28;20043;-47
2023/02/19 02:04:39;;;;;;;1.60;0.70;;;28.40;61.30;;;;;;4097412;28;20054;-51
2023/02/19 02:10:18;;;;;;;1.83;0.77;;;28.40;61.30;;;;;;4100519;28;20070;-47
2023/02/19 02:12:25;;;;;;;1.63;0.57;;;28.40;61.20;;;;;;4096691;28;19915;-52
2023/02/19 02:14:48;;;;;;;1.63;0.70;;;28.40;61.20;;;;;;4100082;28;20523;-54
2023/02/19 02:17:13;;;;;;;1.80;0.70;;;28.40;61.10;;;;;;4104813;28;20118;-49
2023/02/19 02:20:01;;;;;;;1.58;0.88;;;28.50;61.20;;;;;;4096874;28;20469;-51
2023/02/19 02:22:29;;;;;;;2.67;0.90;;;28.50;61.20;;;;;;4098862;28;20039;-52
2023/02/19 02:25:03;;;;;;;2.53;1.10;;;28.50;61.10;;;;;;4100500;28;20051;-53
2023/02/19 02:27:38;;;;;;;1.20;0.60;;;28.50;61.10;;;;;;4105326;28;20047;-51
2023/02/19 02:30:10;;;;;;;1.70;0.60;;;28.60;61.20;;;;;;4101841;28;20047;-47
2023/02/19 02:32:41;;;;;;;1.73;0.60;;;28.60;61.20;;;;;;4102655;28;20484;-46
2023/02/19 02:35:10;;;;;;;1.05;0.52;;;28.50;61.00;;;;;;4104383;28;20129;-48
2023/02/19 02:37:36;;;;;;;1.42;0.80;;;28.60;61.10;;;;;;4097110;28;20043;-49
2023/02/19 02:39:59;;;;;;;2.28;0.50;;;28.60;61.00;;;;;;4099780;28;20138;-45
2023/02/19 02:42:28;;;;;;;3.35;1.10;;;28.60;61.00;;;;;;4100720;28;20039;-45
2023/02/19 02:47:41;;;;;;;2.33;0.63;;;28.60;61.00;;;;;;4099910;28;20046;-46
2023/02/19 02:50:04;;;;;;;2.53;0.70;;;28.60;61.00;;;;;;4104594;28;20047;-46
2023/02/19 02:55:10;;;;;;;1.65;0.82;;;28.60;61.00;;;;;;4102783;28;20422;-47
2023/02/19 02:57:32;;;;;;;1.58;0.60;;;28.60;61.00;;;;;;4098291;28;20042;-45
2023/02/19 02:59:55;;;;;;;2.13;0.88;;;28.60;61.00;;;;;;4105555;28;20537;-45
2023/02/19 03:02:25;;;;;;;2.28;0.73;;;28.60;61.00;;;;;;4100857;28;20070;-49
2023/02/19 03:07:43;;;;;;;1.60;0.83;;;28.70;61.00;;;;;;4101412;28;20050;-49
2023/02/19 03:10:11;;;;;;;1.80;0.80;;;28.70;61.00;;;;;;4105813;28;20460;-53
2023/02/19 03:20:49;;;;;;;1.50;0.70;;;28.80;60.90;;;;;;4104488;28;20516;-45
2023/02/19 03:23:15;;;;;;;1.67;0.82;;;28.90;61.00;;;;;;4102095;28;20419;-49
2023/02/19 03:31:12;;;;;;;1.67;0.80;;;28.90;60.90;;;;;;4087560;28;20130;-51
2023/02/19 03:33:35;;;;;;;1.65;0.63;;;28.90;60.90;;;;;;4099302;28;20535;-47
2023/02/19 03:36:02;;;;;;;1.45;0.70;;;28.90;60.90;;;;;;4096311;28;20049;-47
2023/02/19 03:38:48;;;;;;;2.50;0.90;;;29.00;61.00;;;;;;4080890;28;20047;-47
2023/02/19 03:41:32;;;;;;;1.20;0.60;;;28.90;60.80;;;;;;4101896;28;20046;-49
2023/02/19 03:44:00;;;;;;;1.73;0.65;;;29.00;60.90;;;;;;4102137;28;20613;-50
2023/02/19 03:46:36;;;;;;;0.90;0.47;;;29.00;61.00;;;;;;4095256;28;20035;-52
2023/02/19 03:49:10;;;;;;;2.63;1.10;;;29.00;60.90;;;;;;4102377;28;20034;-45
2023/02/19 03:51:41;;;;;;;;;;;29.00;61.00;;;;;;4098799;28;20485;-50
2023/02/19 03:54:27;;;;;;;1.13;0.55;;;29.00;60.90;;;;;;4093502;28;19965;-51
2023/02/19 03:57:15;;;;;;;1.95;0.90;;;29.00;60.90;;;;;;4099738;28;20035;-52
2023/02/19 04:00:11;;;;;;;2.33;0.88;;;29.10;61.00;;;;;;4102137;28;20081;-49
2023/02/19 04:02:49;;;;;;;1.52;0.57;;;29.10;61.00;;;;;;4090538;28;20064;-52
2023/02/19 04:05:19;;;;;;;1.95;0.90;;;29.10;61.00;;;;;;4093935;28;20259;-46
2023/02/19 04:07:47;;;;;;;1.38;0.77;;;29.10;61.00;;;;;;4100776;28;20063;-49
2023/02/19 04:10:10;;;;;;;2.47;0.98;;;29.20;61.00;;;;;;4098143;28;20065;-51
2023/02/19 04:12:35;;;;;;;3.92;1.10;;;29.20;61.00;;;;;;4095291;28;20519;-46
2023/02/19 04:15:03;;;;;;;1.63;0.65;;;29.20;61.00;;;;;;4099073;28;20026;-53
2023/02/19 04:17:40;;;;;;;1.17;0.80;;;29.30;60.90;;;;;;4099631;28;20046;-48
2023/02/19 04:20:07;;;;;;;3.13;1.05;;;29.30;60.90;;;;;;4098601;28;20584;-51
2023/02/19 04:22:30;;;;;;;1.98;1.02;;;29.30;60.80;;;;;;4096403;28;20046;-57
2023/02/19 04:24:54;;;;;;;1.95;0.85;;;29.30;60.80;;;;;;4093564;28;20090;-49
2023/02/19 04:27:16;;;;;;;;;;;29.40;60.70;;;;;;4097014;28;20038;-52
2023/02/19 04:29:38;;;;;;;1.52;1.08;;;29.40;60.70;;;;;;4100908;28;19914;-50
2023/02/19 04:32:01;;;;;;;1.83;0.85;;;29.50;61.40;;;;;;4100325;28;20130;-50
2023/02/19 04:34:24;;;;;;;2.90;0.80;;;29.50;60.70;;;;;;4094634;28;20078;-55
2023/02/19 04:36:46;;;;;;;2.97;0.93;;;29.50;60.70;;;;;;4083551;28;20293;-48
2023/02/19 04:39:09;;;;;;;3.20;0.93;;;29.50;60.70;;;;;;4097866;28;20438;-48
2023/02/19 04:41:31;;;;;;;2.45;1.15;;;29.50;60.70;;;;;;4100759;28;20038;-49
2023/02/19 04:43:54;;;;;;;2.05;1.23;;;29.60;60.90;;;;;;4096665;28;20046;-50
2023/02/19 04:46:16;;;;;;;3.47;1.00;;;29.50;60.80;;;;;;4093135;28;20043;-50
2023/02/19 04:48:38;;;;;;;3.78;1.15;;;29.60;60.70;;;;;;4097594;28;20035;-53
2023/02/19 04:51:08;;;;;;;1.55;0.70;;;29.70;60.70;;;;;;4091957;28;20125;-50
2023/02/19 04:53:31;;;;;;;2.00;0.88;;;29.70;60.60;;;;;;4095436;28;20039;-49
2023/02/19 04:55:53;;;;;;;1.38;0.70;;;29.80;60.60;;;;;;4094927;28;20138;-49
2023/02/19 04:58:15;;;;;;;1.52;0.77;;;29.80;60.40;;;;;;4098963;28;20560;-50
2023/02/19 05:00:38;;;;;;;0.90;0.57;;;29.90;60.40;;;;;;4081294;28;20119;-48
2023/02/19 05:03:01;;;;;;;1.40;0.60;;;29.90;60.30;;;;;;4083939;28;20448;-49
2023/02/19 05:05:23;;;;;;;2.53;1.20;;;30.00;60.50;;;;;;4081489;28;20077;-48
2023/02/19 05:07:46;;;;;;;6.38;1.50;;;29.90;58.10;;;;;;4079384;28;20109;-50
2023/02/19 05:10:08;;;;;;;3.40;1.38;;;29.70;56.80;;;;;;4080185;28;20058;-56
2023/02/19 05:12:31;;;;;;;2.42;1.30;;;29.50;55.90;;;;;;4083891;28;20520;-50
2023/02/19 05:14:53;;;;;;;2.72;1.50;;;29.30;55.50;;;;;;4081195;28;20611;-50
2023/02/19 05:17:16;;;;;;;3.05;1.33;;;29.10;54.80;;;;;;4079660;28;20040;-56
2023/02/19 05:19:38;;;;;;;3.47;1.48;;;28.90;55.10;;;;;;4078652;28;20101;-56
2023/02/19 05:22:00;;;;;;;2.88;1.33;;;28.70;54.70;;;;;;4076762;28;20472;-53
2023/02/19 05:24:23;;;;;;;7.68;2.10;;;28.60;54.50;;;;;;4081034;28;20055;-54
2023/02/19 05:26:47;;;;;;;4.07;1.40;;;28.50;55.00;;;;;;4081929;28;20577;-52
2023/02/19 05:29:09;;;;;;;3.47;1.77;;;28.40;54.50;;;;;;4071757;28;20492;-50
2023/02/19 05:31:35;;;;;;;3.63;1.70;;;28.20;54.90;;;;;;4085094;28;20569;-54
2023/02/19 05:33:57;;;;;;;4.88;1.63;;;28.10;54.70;;;;;;4082346;28;20579;-51
2023/02/19 05:36:21;;;;;;;3.22;1.65;;;28.00;55.00;;;;;;4078267;28;20039;-52
2023/02/19 05:38:43;;;;;;;;;;;27.90;54.80;;;;;;4080589;28;20430;-53
2023/02/19 05:41:13;;;;;;;4.18;2.05;;;27.80;55.40;;;;;;4083670;28;19915;-51
2023/02/19 05:43:36;;;;;;;2.33;1.65;;;27.70;54.60;;;;;;4082598;28;20043;-51
2023/02/19 05:45:58;;;;;;;2.73;1.60;;;27.60;55.10;;;;;;4084666;28;20044;-50
2023/02/19 05:48:21;;;;;;;3.70;1.50;;;27.50;55.30;;;;;;4083904;28;20031;-48
2023/02/19 05:50:43;;;;;;;3.35;1.75;;;27.40;54.90;;;;;;4081733;28;20050;-50
2023/02/19 05:53:06;;;;;;;3.95;1.70;;;27.40;55.10;;;;;;4079580;28;20048;-53
2023/02/19 05:55:29;;;;;;;1.95;1.27;;;27.30;55.30;;;;;;4082149;28;20741;-49
2023/02/19 05:57:51;;;;;;;;;;;27.20;55.10;;;;;;4083087;28;20524;-51
2023/02/19 06:00:17;;;;;;;4.90;2.20;;;27.10;55.30;;;;;;4102937;28;20318;-53
2023/02/19 06:02:39;;;;;;;7.25;2.10;;;27.10;55.20;;;;;;4105492;28;20985;-48
2023/02/19 06:05:02;;;;;;;6.85;2.00;;;27.00;55.50;;;;;;4102318;28;20043;-52
2023/02/19 06:07:24;;;;;;;8.32;2.42;;;27.00;55.40;;;;;;4103934;28;20039;-54
2023/02/19 06:09:50;;;;;;;3.78;1.90;;;26.90;55.10;;;;;;4096743;28;20118;-54
2023/02/19 06:12:13;;;;;;;3.53;1.92;;;26.90;55.40;;;;;;4099852;28;20515;-50
2023/02/19 06:14:36;;;;;;;3.83;2.00;;;26.80;55.20;;;;;;4101420;28;20129;-51
2023/02/19 06:16:58;;;;;;;3.92;2.00;;;26.80;55.30;;;;;;4104182;28;20504;-52
2023/02/19 06:19:20;;;;;;;3.40;1.90;;;26.70;55.30;;;;;;4105157;28;20186;-52
2023/02/19 06:21:43;;;;;;;5.03;2.05;;;26.70;55.60;;;;;;4089275;28;20102;-51
2023/02/19 06:24:07;;;;;;;5.43;2.17;;;26.60;55.40;;;;;;4104267;28;20074;-52
2023/02/19 06:26:30;;;;;;;4.45;2.03;;;26.60;55.50;;;;;;4088658;28;20420;-53
2023/02/19 06:28:53;;;;;;;4.55;2.22;;;26.60;55.70;;;;;;4099106;28;20045;-53
2023/02/19 06:31:17;;;;;;;5.28;2.72;;;26.60;56.10;;;;;;4100012;28;20841;-49
2023/02/19 06:33:40;;;;;;;4.78;2.25;;;26.50;55.80;;;;;;4105600;28;20153;-54
2023/02/19 06:36:04;;;;;;;4.75;1.83;;;26.50;56.10;;;;;;4090781;28;20085;-56
2023/02/19 06:38:27;;;;;;;4.32;1.92;;;26.40;55.80;;;;;;4107392;28;20046;-53
2023/02/19 06:40:49;;;;;;;4.90;2.40;;;26.40;55.70;;;;;;4107535;28;20035;-54
2023/02/19 06:43:12;;;;;;;3.85;2.20;;;26.30;55.90;;;;;;4103550;28;20043;-54
2023/02/19 06:45:34;;;;;;;4.45;2.33;;;26.30;55.60;;;;;;4095595;28;20058;-55
2023/02/19 06:47:57;;;;;;;3.22;1.70;;;26.30;55.90;;;;;;4096900;28;20051;-54
2023/02/19 06:50:19;;;;;;;3.38;2.17;;;26.20;55.70;;;;;;4096846;28;20048;-52
2023/02/19 06:52:42;;;;;;;3.20;1.80;;;26.20;55.90;;;;;;4098963;28;20039;-53
2023/02/19 06:55:04;;;;;;;8.65;1.85;;;26.20;55.80;;;;;;4094172;28;20539;-52
2023/02/19 06:57:27;;;;;;;2.78;1.67;;;26.10;55.80;;;;;;4098376;28;20074;-48
2023/02/19 06:59:49;;;;;;;2.78;1.80;;;26.10;56.00;;;;;;4092223;28;20057;-57
2023/02/19 07:02:12;;;;;;;3.97;2.25;;;26.00;56.20;;;;;;4082618;28;20115;-54
2023/02/19 07:04:35;;;;;;;2.85;1.55;;;25.90;55.80;;;;;;4094873;28;20744;-46
2023/02/19 07:06:59;;;;;;;3.33;1.70;;;25.90;56.10;;;;;;4095001;28;20034;-48
2023/02/19 07:09:22;;;;;;;;;;;25.80;56.20;;;;;;4081386;28;20054;-50
2023/02/19 07:11:44;;;;;;;5.97;1.90;;;25.70;56.40;;;;;;4095148;28;19918;-48
2023/02/19 07:14:13;;;;;;;3.30;1.70;;;25.70;56.30;;;;;;4094408;28;20039;-50
2023/02/19 07:16:35;;;;;;;3.58;1.92;;;25.60;56.10;;;;;;4092682;28;20054;-51
2023/02/19 07:18:59;;;;;;;4.72;2.00;;;25.60;56.30;;;;;;4093330;28;20042;-51
2023/02/19 07:21:21;;;;;;;;;;;25.50;56.20;;;;;;4098207;28;20039;-45
2023/02/19 07:23:44;;;;;;;2.88;1.58;;;25.50;56.30;;;;;;4092367;28;19921;-46
2023/02/19 07:26:12;;;;;;;3.67;1.73;;;25.40;56.20;;;;;;4094579;28;20047;-47
2023/02/19 07:28:35;;;;;;;3.50;1.65;;;25.40;56.50;;;;;;4097393;28;20038;-56
2023/02/19 07:31:02;;;;;;;2.72;1.60;;;25.30;56.40;;;;;;4099955;28;20038;-54
2023/02/19 07:33:24;;;;;;;2.83;1.67;;;25.20;56.30;;;;;;4094981;28;20042;-54
2023/02/19 07:35:48;;;;;;;3.50;1.75;;;25.10;56.20;;;;;;4096405;28;20106;-43
2023/02/19 07:38:10;;;;;;;;;;;25.10;56.20;;;;;;4103903;28;20094;-49
2023/02/19 07:40:33;;;;;;;3.20;1.75;;;25.10;56.60;;;;;;4100451;28;19920;-50
2023/02/19 07:42:58;;;;;;;3.42;1.73;;;25.00;56.30;;;;;;4099688;28;20043;-55
2023/02/19 07:45:20;;;;;;;3.15;1.70;;;24.90;56.40;;;;;;4103626;28;20543;-46
2023/02/19 07:47:43;;;;;;;2.92;1.40;;;24.80;56.80;;;;;;4100950;28;20042;-45
2023/02/19 07:50:06;;;;;;;3.03;1.50;;;24.80;56.60;;;;;;4103936;28;20560;-51
2023/02/19 07:52:28;;;;;;;3.33;2.08;;;24.70;56.80;;;;;;4088436;28;20459;-54
2023/02/19 07:54:51;;;;;;;4.38;1.90;;;24.60;56.80;;;;;;4098065;28;20066;-52
2023/02/19 07:57:13;;;;;;;3.65;1.58;;;24.60;56.90;;;;;;4100939;28;20593;-52
2023/02/19 07:59:38;;;;;;;3.30;1.80;;;24.50;56.80;;;;;;4105053;28;20112;-46
2023/02/19 08:04:41;;;;;;;4.22;2.33;;;24.40;57.00;;;;;;4100598;28;20463;-49
2023/02/19 08:07:04;;;;;;;3.40;1.80;;;24.30;57.00;;;;;;4100165;28;20039;-52
2023/02/19 08:09:26;;;;;;;4.47;1.90;;;24.30;57.00;;;;;;4105100;28;20105;-48
2023/02/19 08:14:29;;;;;;;3.17;1.75;;;24.10;57.10;;;;;;4092931;28;20043;-44
2023/02/19 08:16:52;;;;;;;3.60;1.88;;;24.10;56.90;;;;;;4091336;28;20602;-50
2023/02/19 08:19:15;;;;;;;4.80;2.10;;;24.10;57.70;;;;;;4093663;28;20105;-44
2023/02/19 08:21:37;;;;;;;3.63;2.05;;;24.00;57.30;;;;;;4089731;28;20035;-47
2023/02/19 08:23:59;;;;;;;2.97;1.73;;;24.00;57.50;;;;;;4093065;28;20074;-49
2023/02/19 08:26:22;;;;;;;5.07;2.33;;;23.90;57.50;;;;;;4090663;28;20039;-50
2023/02/19 08:28:44;;;;;;;4.55;2.00;;;23.80;57.60;;;;;;4098735;28;20055;-48
2023/02/19 08:31:09;;;;;;;3.75;2.15;;;23.70;57.80;;;;;;4100100;28;20050;-44
2023/02/19 08:33:32;;;;;;;3.55;1.90;;;23.70;57.60;;;;;;4093112;28;20045;-51
2023/02/19 08:35:55;;;;;;;5.57;1.90;;;23.70;57.80;;;;;;4092761;28;20043;-43
2023/02/19 08:38:18;;;;;;;4.43;2.15;;;23.60;57.60;;;;;;4090447;28;20043;-48
2023/02/19 08:40:41;;;;;;;2.95;1.65;;;23.60;57.90;;;;;;4091076;28;20042;-46
2023/02/19 08:43:09;;;;;;;3.03;2.03;;;23.50;57.80;;;;;;4093296;28;20174;-50
2023/02/19 08:45:32;;;;;;;3.20;1.90;;;23.50;57.90;;;;;;4093890;28;20085;-46
2023/02/19 08:47:54;;;;;;;3.60;2.07;;;23.40;58.10;;;;;;4080378;28;20035;-50
2023/02/19 08:50:16;;;;;;;3.25;1.92;;;23.40;58.30;;;;;;4093992;28;20070;-46
2023/02/19 08:52:39;;;;;;;5.03;2.10;;;23.30;58.50;;;;;;4092200;28;20537;-49
2023/02/19 08:55:02;;;;;;;3.53;2.00;;;23.30;58.50;;;;;;4095893;28;20042;-46
2023/02/19 08:57:25;;;;;;;4.20;2.00;;;23.20;58.50;;;;;;4097195;28;20037;-47
2023/02/19 08:59:48;;;;;;;3.27;1.80;;;23.20;58.50;;;;;;4100307;28;20054;-43
2023/02/19 09:02:11;;;;;;;3.17;1.77;;;23.10;58.50;;;;;;4095636;28;20031;-44
2023/02/19 09:04:35;;;;;;;3.20;2.15;;;23.10;58.50;;;;;;4100933;28;20055;-48
2023/02/19 09:06:57;;;;;;;4.43;2.15;;;23.10;58.50;;;;;;4096629;28;20035;-44
2023/02/19 09:09:20;;;;;;;4.88;2.22;;;23.00;58.60;;;;;;4098698;28;20073;-45
2023/02/19 09:11:42;;;;;;;2.85;1.60;;;23.00;58.70;;;;;;4095381;28;20491;-53
2023/02/19 09:14:08;;;;;;;3.65;1.80;;;22.90;58.60;;;;;;4096976;28;20218;-44
2023/02/19 09:16:30;;;;;;;5.35;2.05;;;22.90;58.50;;;;;;4098269;28;20035;-43
2023/02/19 09:18:52;;;;;;;3.38;1.65;;;22.80;58.50;;;;;;4094394;28;20042;-48
2023/02/19 09:21:15;;;;;;;2.58;1.85;;;22.80;58.60;;;;;;4095385;28;20082;-46
2023/02/19 09:23:37;;;;;;;3.53;1.90;;;22.70;58.40;;;;;;4098403;28;20039;-46
2023/02/19 09:26:02;;;;;;;2.50;1.67;;;22.70;58.20;;;;;;4088100;28;20053;-44
2023/02/19 09:28:24;;;;;;;3.17;1.75;;;22.60;58.90;;;;;;4094685;28;20039;-46
2023/02/19 09:30:47;;;;;;;2.92;1.92;;;22.60;58.20;;;;;;4094101;28;20130;-50
2023/02/19 09:33:09;;;;;;;3.28;1.83;;;22.50;58.00;;;;;;4097009;28;20511;-43
2023/02/19 09:35:32;;;;;;;3.72;2.00;;;22.50;58.00;;;;;;4096239;28;20121;-45
2023/02/19 09:37:54;;;;;;;5.03;1.77;;;22.50;58.10;;;;;;4092390;28;20067;-50
2023/02/19 09:40:20;;;;;;;3.20;1.67;;;22.50;58.80;;;;;;4094028;28;20039;-50
2023/02/19 09:42:43;;;;;;;2.78;1.90;;;22.60;59.20;;;;;;4093530;28;20274;-45
2023/02/19 09:45:06;;;;;;;3.20;1.40;;;22.70;60.00;;;;;;4082281;28;20058;-53
2023/02/19 09:47:31;;;;;;;5.45;2.25;;;22.90;60.70;;;;;;4096450;28;20311;-47
2023/02/19 09:50:02;;;;;;;3.50;1.58;;;23.10;60.90;;;;;;4094693;28;20075;-45
2023/02/19 09:52:36;;;;;;;1.90;1.25;;;23.30;60.90;;;;;;4096170;28;20421;-45
2023/02/19 09:55:24;;;;;;;4.18;1.60;;;23.50;61.20;;;;;;4095836;28;20234;-49
2023/02/19 09:57:47;;;;;;;3.85;1.45;;;23.60;61.30;;;;;;4092837;28;20043;-49
2023/02/19 10:00:23;;;;;;;3.20;1.63;;;23.80;61.40;;;;;;4097267;28;20133;-49
2023/02/19 10:02:49;;;;;;;2.47;1.27;;;23.90;61.40;;;;;;4098744;28;20289;-52
2023/02/19 10:05:16;;;;;;;3.20;1.55;;;24.10;61.60;;;;;;4094986;28;20090;-47
2023/02/19 10:07:45;;;;;;;2.95;1.50;;;24.20;62.40;;;;;;4093059;28;20053;-54
2023/02/19 10:10:29;;;;;;;3.58;1.30;;;24.30;61.90;;;;;;4100968;28;20053;-54
2023/02/19 10:12:55;;;;;;;2.08;1.10;;;24.40;61.90;;;;;;4100379;28;20105;-47
2023/02/19 10:15:24;;;;;;;2.30;0.90;;;24.60;62.10;;;;;;4092464;28;20497;-50
2023/02/19 10:17:46;;;;;;;9.25;1.63;;;24.60;62.20;;;;;;4092651;28;20790;-49
2023/02/19 10:20:25;;;;;;;2.75;1.38;;;24.80;62.50;;;;;;4097701;28;20042;-52
2023/02/19 10:22:48;;;;;;;4.05;1.13;;;24.80;62.30;;;;;;4099116;28;20665;-44
2023/02/19 10:25:15;;;;;;;5.47;1.38;;;24.90;62.40;;;;;;4097549;28;20277;-46
2023/02/19 10:27:37;;;;;;;5.25;1.40;;;25.00;62.40;;;;;;4102241;28;20533;-45
2023/02/19 10:30:00;;;;;;;3.55;1.00;;;25.10;62.50;;;;;;4102225;28;20100;-51
2023/02/19 10:32:24;;;;;;;2.00;1.13;;;25.20;62.50;;;;;;4099472;28;20066;-46
2023/02/19 10:34:47;;;;;;;3.35;1.55;;;25.30;62.80;;;;;;4102610;28;20038;-45
2023/02/19 10:37:18;;;;;;;16.67;1.80;;;25.30;62.60;;;;;;4101153;28;20031;-48
2023/02/19 10:39:42;;;;;;;2.38;1.40;;;25.40;62.80;;;;;;4098554;28;20038;-50
2023/02/19 10:42:05;;;;;;;5.05;1.20;;;25.50;62.80;;;;;;4095623;28;20058;-50
2023/02/19 10:44:34;;;;;;;3.05;1.35;;;25.50;62.80;;;;;;4091980;28;20054;-48
2023/02/19 10:46:59;;;;;;;4.43;1.58;;;25.60;62.90;;;;;;4095288;28;20043;-49
2023/02/19 10:49:36;;;;;;;2.90;1.05;;;25.70;62.90;;;;;;4098558;28;20039;-51
2023/02/19 10:52:19;;;;;;;2.42;1.00;;;25.70;62.90;;;;;;4104016;28;20483;-49
2023/02/19 10:54:43;;;;;;;2.55;1.35;;;25.70;62.90;;;;;;4093983;28;20925;-47
2023/02/19 10:57:31;;;;;;;3.53;0.80;;;25.80;63.00;;;;;;4094025;28;20114;-44
2023/02/19 11:00:29;;;;;;;1.65;0.80;;;25.80;62.70;;;;;;4083444;28;20461;-47
2023/02/19 11:03:19;;;;;;;2.22;0.93;;;26.00;62.80;;;;;;4099375;28;20046;-55
2023/02/19 11:05:54;;;;;;;6.28;1.10;;;26.00;62.60;;;;;;4098881;28;20505;-48
2023/02/19 11:08:24;;;;;;;6.18;1.00;;;26.10;62.60;;;;;;4099099;28;20372;-47
2023/02/19 11:10:48;;;;;;;2.90;1.13;;;26.10;62.60;;;;;;4097591;28;20043;-49
2023/02/19 11:13:29;;;;;;;3.10;1.50;;;26.10;63.20;;;;;;4100390;28;20677;-49
2023/02/19 11:15:54;;;;;;;4.15;1.58;;;26.10;63.60;;;;;;4100519;28;20046;-52
2023/02/19 11:18:24;;;;;;;2.95;1.58;;;26.10;64.00;;;;;;4098906;28;20061;-47
2023/02/19 11:21:06;;;;;;;3.80;1.40;;;26.10;64.00;;;;;;4087314;28;20407;-48
2023/02/19 11:23:37;;;;;;;9.85;2.42;;;26.10;64.00;;;;;;4087459;28;20381;-43
2023/02/19 11:26:05;;;;;;;16.17;2.72;;;26.20;64.10;;;;;;4099900;28;20437;-50
2023/02/19 11:28:31;;;;;;;10.52;2.45;;;26.20;64.50;;;;;;4087745;28;20114;-48
2023/02/19 11:30:53;;;;;;;13.55;1.73;;;26.20;64.30;;;;;;4092305;28;20516;-46
2023/02/19 11:33:19;;;;;;;13.95;2.78;;;26.20;64.50;;;;;;4095691;28;20031;-40
2023/02/19 11:35:42;;;;;;;8.70;1.60;;;26.20;64.70;;;;;;4095512;28;20524;-40
2023/02/19 11:38:09;;;;;;;6.78;1.48;;;26.20;64.80;;;;;;4092096;28;20081;-46
2023/02/19 11:40:44;;;;;;;7.60;1.58;;;26.20;65.00;;;;;;4097494;28;20382;-45
2023/02/19 11:43:15;;;;;;;6.10;1.88;;;26.10;65.00;;;;;;4100384;28;20863;-43
2023/02/19 11:45:42;;;;;;;2.95;1.30;;;26.20;65.20;;;;;;4101774;28;20046;-42
2023/02/19 11:48:19;;;;;;;3.70;1.65;;;26.20;65.30;;;;;;4101670;28;20070;-42
2023/02/19 11:51:11;;;;;;;3.13;1.15;;;26.20;65.50;;;;;;4101379;28;20521;-41
2023/02/19 11:53:41;;;;;;;5.38;1.15;;;26.20;65.40;;;;;;4097232;28;20086;-42
2023/02/19 11:56:22;;;;;;;3.17;1.33;;;26.20;65.50;;;;;;4088780;28;20107;-39
2023/02/19 11:58:59;;;;;;;5.65;1.50;;;26.30;65.70;;;;;;4102414;28;20043;-41
2023/02/19 12:02:00;;;;;;;3.17;1.23;;;26.30;65.70;;;;;;4102047;28;20049;-42
2023/02/19 12:04:43;;;;;;;2.22;1.15;;;26.40;65.90;;;;;;4100501;28;20046;-41
2023/02/19 12:07:38;;;;;;;2.97;1.58;;;26.40;65.70;;;;;;4095795;28;20043;-43
2023/02/19 12:10:18;;;;;;;3.53;1.25;;;26.40;65.80;;;;;;4063928;28;20626;-46
2023/02/19 12:13:20;;;;;;;2.38;1.08;;;26.40;65.80;;;;;;4099594;28;20037;-41
2023/02/19 12:15:48;;;;;;;2.65;1.15;;;26.50;65.90;;;;;;4099728;28;20448;-44
2023/02/19 12:18:52;;;;;;;8.40;1.80;;;26.50;66.00;;;;;;4103445;28;20133;-45
2023/02/19 12:21:38;;;;;;;2.85;1.15;;;26.50;66.00;;;;;;4091885;28;20045;-46
2023/02/19 12:24:22;;;;;;;3.35;1.30;;;26.60;66.00;;;;;;4097497;28;20134;-41
2023/02/19 12:27:12;;;;;;;3.42;1.40;;;26.60;66.00;;;;;;4097281;28;20481;-39
2023/02/19 12:29:43;;;;;;;2.47;1.13;;;26.60;66.00;;;;;;4095489;28;20039;-42
2023/02/19 12:32:32;;;;;;;4.68;1.33;;;26.60;66.00;;;;;;4099643;28;20960;-46
2023/02/19 12:35:13;;;;;;;3.78;0.95;;;26.60;66.00;;;;;;4083154;28;20043;-41
2023/02/19 12:37:38;;;;;;;6.55;1.85;;;26.60;66.00;;;;;;4098853;28;20679;-46
2023/02/19 12:40:12;;;;;;;3.47;1.23;;;26.60;66.10;;;;;;4090150;28;20047;-41
2023/02/19 12:42:50;;;;;;;2.78;1.20;;;26.60;66.10;;;;;;4098046;28;20048;-43
2023/02/19 12:45:42;;;;;;;3.97;1.10;;;26.70;66.20;;;;;;4095143;28;20053;-44
2023/02/19 12:48:26;;;;;;;2.67;1.25;;;26.70;66.20;;;;;;4098669;28;20039;-43
2023/02/19 12:50:54;;;;;;;3.47;1.25;;;26.70;66.10;;;;;;4098165;28;20065;-42
2023/02/19 12:53:37;;;;;;;11.05;1.67;;;26.70;66.20;;;;;;4106503;28;20432;-41
2023/02/19 12:56:04;;;;;;;4.15;1.13;;;26.70;66.00;;;;;;4107272;28;20267;-39
2023/02/19 12:58:44;;;;;;;3.72;1.55;;;26.70;65.90;;;;;;4100119;28;20496;-43
2023/02/19 13:01:10;;;;;;;4.25;1.08;;;26.70;66.00;;;;;;4107455;28;20051;-42
2023/02/19 13:04:02;;;;;;;4.78;1.58;;;26.70;66.20;;;;;;4089687;28;20162;-42
2023/02/19 13:06:49;;;;;;;2.97;1.35;;;26.70;66.20;;;;;;4107724;28;20508;-41
2023/02/19 13:09:31;;;;;;;2.58;1.40;;;26.70;66.30;;;;;;4108339;28;20205;-39
2023/02/19 13:12:01;;;;;;;3.15;1.05;;;26.80;66.40;;;;;;4106867;28;20125;-42
2023/02/19 13:14:26;;;;;;;2.78;1.00;;;26.80;66.40;;;;;;4101367;28;20050;-38
2023/02/19 13:16:56;;;;;;;2.95;1.30;;;26.80;66.40;;;;;;4102590;28;21348;-40
2023/02/19 13:19:18;;;;;;;3.25;1.30;;;26.80;66.40;;;;;;4099152;28;20511;-37